createdAt,value
2018-10-07T00:01:32.985Z,15.40
2018-10-07T00:04:03.106Z,16.13
2018-10-07T00:06:32.052Z,14.90
2018-10-07T00:09:01.960Z,14.33
2018-10-07T00:11:31.623Z,15.77
2018-10-07T00:14:01.415Z,15.30
2018-10-07T00:16:31.740Z,15.23
2018-10-07T00:19:01.524Z,14.80
2018-10-07T00:21:30.940Z,15.47
2018-10-07T00:24:01.167Z,16.47
2018-10-07T00:26:30.534Z,14.90
2018-10-07T00:29:01.404Z,15.73
2018-10-07T00:31:31.682Z,15.93
2018-10-07T00:34:03.107Z,16.30
2018-10-07T00:36:33.391Z,15.77
2018-10-07T00:39:03.761Z,15.43
2018-10-07T00:41:34.335Z,15.40
2018-10-07T00:44:03.973Z,15.30
2018-10-07T00:46:35.463Z,16.10
2018-10-07T00:49:05.863Z,16.03
2018-10-07T00:51:36.496Z,14.80
2018-10-07T00:54:05.583Z,15.43
2018-10-07T00:56:34.619Z,15.60
2018-10-07T00:59:04.191Z,15.93
2018-10-07T01:01:33.590Z,15.40
2018-10-07T01:04:03.910Z,15.70
2018-10-07T01:06:33.013Z,15.53
2018-10-07T01:09:02.367Z,15.00
2018-10-07T01:11:32.402Z,15.40
2018-10-07T01:14:01.437Z,16.40
2018-10-07T01:16:30.616Z,15.83
2018-10-07T01:18:59.713Z,16.23
2018-10-07T01:21:28.757Z,16.27
2018-10-07T01:23:59.716Z,16.17
2018-10-07T01:26:29.665Z,17.10
2018-10-07T01:28:59.166Z,16.60
2018-10-07T01:31:29.965Z,15.37
2018-10-07T01:34:00.159Z,15.93
2018-10-07T01:36:29.213Z,16.10
2018-10-07T01:38:58.792Z,16.03
2018-10-07T01:41:28.338Z,16.67
2018-10-07T01:43:58.499Z,16.40
2018-10-07T01:46:28.082Z,16.47
2018-10-07T01:48:57.118Z,16.90
2018-10-07T01:51:26.416Z,16.30
2018-10-07T01:53:56.669Z,16.17
2018-10-07T01:56:27.208Z,15.93
2018-10-07T01:58:56.173Z,16.03
2018-10-07T02:01:26.564Z,16.77
2018-10-07T02:03:55.483Z,16.30
2018-10-07T02:06:26.282Z,15.20
2018-10-07T02:08:55.607Z,16.27
2018-10-07T02:11:24.841Z,15.47
2018-10-07T02:13:55.072Z,15.37
2018-10-07T02:16:24.478Z,15.90
2018-10-07T02:18:54.275Z,16.13
2018-10-07T02:21:24.548Z,16.93
2018-10-07T02:23:53.411Z,16.20
2018-10-07T02:26:24.124Z,16.93
2018-10-07T02:28:53.843Z,16.57
2018-10-07T02:31:23.790Z,15.73
2018-10-07T02:33:53.657Z,16.50
2018-10-07T02:36:22.371Z,16.00
2018-10-07T02:38:51.136Z,15.93
2018-10-07T02:41:19.977Z,15.77
2018-10-07T02:43:49.401Z,16.00
2018-10-07T02:46:18.217Z,15.53
2018-10-07T02:48:46.991Z,16.30
2018-10-07T02:51:16.031Z,15.67
2018-10-07T02:53:45.180Z,15.70
2018-10-07T02:56:14.363Z,16.40
2018-10-07T02:58:43.270Z,15.83
2018-10-07T03:01:12.360Z,15.87
2018-10-07T03:03:41.993Z,16.57
2018-10-07T03:06:12.064Z,16.53
2018-10-07T03:08:41.463Z,16.03
2018-10-07T03:11:11.318Z,15.70
2018-10-07T03:13:42.133Z,16.60
2018-10-07T03:16:12.483Z,16.30
2018-10-07T03:18:42.710Z,16.73
2018-10-07T03:21:12.209Z,16.00
2018-10-07T03:23:41.840Z,16.53
2018-10-07T03:26:11.412Z,15.57
2018-10-07T03:28:41.446Z,15.70
2018-10-07T03:31:11.585Z,16.90
2018-10-07T03:33:41.327Z,15.67
2018-10-07T03:36:10.933Z,16.13
2018-10-07T03:38:41.030Z,16.70
2018-10-07T03:41:10.254Z,17.00
2018-10-07T03:43:40.633Z,16.10
2018-10-07T03:46:09.532Z,15.87
2018-10-07T03:48:39.323Z,16.57
2018-10-07T03:51:08.941Z,16.43
2018-10-07T03:53:38.356Z,16.57
2018-10-07T03:56:08.602Z,16.47
2018-10-07T03:58:37.754Z,15.40
2018-10-07T04:01:08.608Z,15.70
2018-10-07T04:03:38.192Z,16.00
2018-10-07T04:06:07.303Z,16.30
2018-10-07T04:08:38.113Z,16.10
2018-10-07T04:11:07.743Z,15.87
2018-10-07T04:13:37.469Z,15.73
2018-10-07T04:16:07.358Z,15.00
2018-10-07T04:18:36.627Z,15.13
2018-10-07T04:21:06.480Z,15.20
2018-10-07T04:23:37.149Z,15.13
2018-10-07T04:26:06.883Z,15.70
2018-10-07T04:28:36.696Z,15.33
2018-10-07T04:31:07.720Z,15.70
2018-10-07T04:33:38.964Z,16.20
2018-10-07T04:36:08.156Z,15.57
2018-10-07T04:38:37.350Z,16.63
2018-10-07T04:41:06.739Z,16.57
2018-10-07T04:43:37.108Z,15.93
2018-10-07T04:46:07.063Z,16.90
2018-10-07T04:48:37.131Z,16.73
2018-10-07T04:51:07.369Z,17.10
2018-10-07T04:53:36.945Z,16.97
2018-10-07T04:56:06.506Z,17.40
2018-10-07T04:58:35.485Z,16.47
2018-10-07T05:01:06.142Z,18.00
2018-10-07T05:03:35.727Z,18.70
2018-10-07T05:06:05.051Z,18.00
2018-10-07T05:08:35.030Z,17.77
2018-10-07T05:11:05.268Z,18.47
2018-10-07T05:13:40.902Z,18.43
2018-10-07T05:16:12.118Z,19.33
2018-10-07T05:18:42.136Z,19.70
2018-10-07T05:21:11.377Z,19.80
2018-10-07T05:23:41.997Z,19.60
2018-10-07T05:26:12.175Z,20.63
2018-10-07T05:28:41.232Z,20.63
2018-10-07T05:31:10.825Z,21.07
2018-10-07T05:33:41.094Z,20.77
2018-10-07T05:36:10.115Z,22.80
2018-10-07T05:38:40.183Z,21.90
2018-10-07T05:41:09.235Z,21.77
2018-10-07T05:43:38.079Z,21.80
2018-10-07T05:46:08.228Z,22.67
2018-10-07T05:48:39.874Z,24.07
2018-10-07T05:51:09.584Z,23.30
2018-10-07T05:53:40.371Z,24.60
2018-10-07T05:56:09.874Z,24.80
2018-10-07T05:58:40.139Z,23.27
2018-10-07T06:01:12.984Z,23.40
2018-10-07T06:03:53.338Z,26.47
2018-10-07T06:06:22.531Z,25.63
2018-10-07T06:08:51.682Z,27.70
2018-10-07T06:11:20.927Z,26.60
2018-10-07T06:13:50.032Z,27.70
2018-10-07T06:16:20.006Z,27.53
2018-10-07T06:18:49.708Z,26.47
2018-10-07T06:21:19.216Z,29.10
2018-10-07T06:23:49.687Z,29.77
2018-10-07T06:26:20.478Z,30.67
2018-10-07T06:28:49.954Z,31.10
2018-10-07T06:31:18.991Z,33.10
2018-10-07T06:33:49.045Z,30.40
2018-10-07T06:36:18.451Z,32.17
2018-10-07T06:38:47.573Z,30.60
2018-10-07T06:41:17.056Z,30.53
2018-10-07T06:43:46.629Z,30.13
2018-10-07T06:46:16.457Z,31.47
2018-10-07T06:48:46.316Z,30.40
2018-10-07T06:51:15.341Z,31.60
2018-10-07T06:53:45.005Z,29.77
2018-10-07T06:56:14.235Z,31.40
2018-10-07T06:58:43.279Z,27.40
2018-10-07T07:01:12.381Z,25.40
2018-10-07T07:03:42.417Z,25.97
2018-10-07T07:06:12.055Z,25.30
2018-10-07T07:08:41.369Z,21.80
2018-10-07T07:11:10.539Z,20.60
2018-10-07T07:13:39.596Z,20.00
2018-10-07T07:16:08.422Z,18.90
2018-10-07T07:18:37.211Z,17.73
2018-10-07T07:21:06.199Z,17.50
2018-10-07T07:23:35.100Z,16.33
2018-10-07T07:26:03.960Z,16.93
2018-10-07T07:28:33.103Z,14.47
2018-10-07T07:31:03.060Z,14.83
2018-10-07T07:33:32.071Z,14.00
2018-10-07T07:36:02.003Z,14.50
2018-10-07T07:38:30.890Z,13.83
2018-10-07T07:40:59.723Z,14.00
2018-10-07T07:43:28.724Z,14.70
2018-10-07T07:46:02.439Z,15.00
2018-10-07T07:48:31.473Z,14.27
2018-10-07T07:51:00.512Z,14.43
2018-10-07T07:53:29.302Z,14.37
2018-10-07T07:55:58.476Z,14.00
2018-10-07T07:58:27.224Z,14.20
2018-10-07T08:00:56.110Z,14.10
2018-10-07T08:03:24.873Z,13.83
2018-10-07T08:05:54.097Z,14.17
2018-10-07T08:08:22.925Z,12.97
2018-10-07T08:10:51.905Z,13.30
2018-10-07T08:13:20.895Z,13.60
2018-10-07T08:15:49.700Z,12.43
2018-10-07T08:18:18.485Z,13.23
2018-10-07T08:20:47.761Z,12.60
2018-10-07T08:23:17.141Z,11.87
2018-10-07T08:25:49.108Z,12.50
2018-10-07T08:28:18.108Z,11.50
2018-10-07T08:30:47.002Z,11.13
2018-10-07T08:33:15.852Z,10.60
2018-10-07T08:35:44.918Z,9.93
2018-10-07T08:38:13.768Z,9.53
2018-10-07T08:40:42.628Z,9.40
2018-10-07T08:43:11.549Z,9.87
2018-10-07T08:45:40.307Z,9.43
2018-10-07T08:48:09.405Z,9.00
2018-10-07T08:50:38.226Z,8.80
2018-10-07T08:53:07.312Z,9.20
2018-10-07T08:55:36.415Z,8.93
2018-10-07T08:58:05.402Z,8.40
2018-10-07T09:00:34.197Z,8.10
2018-10-07T09:03:03.042Z,8.10
2018-10-07T09:05:31.965Z,8.10
2018-10-07T09:08:00.745Z,8.43
2018-10-07T09:13:12.734Z,8.00
2018-10-07T09:15:50.990Z,8.53
2018-10-07T09:18:28.325Z,8.17
2018-10-07T09:21:01.790Z,8.30
2018-10-07T09:23:33.370Z,7.90
2018-10-07T09:26:16.568Z,8.07
2018-10-07T09:28:48.419Z,8.00
2018-10-07T09:31:22.359Z,8.27
2018-10-07T09:33:52.474Z,8.20
2018-10-07T09:36:22.119Z,8.43
2018-10-07T09:38:51.153Z,7.93
2018-10-07T09:41:20.424Z,7.57
2018-10-07T09:43:49.330Z,8.00
2018-10-07T09:46:18.495Z,7.90
2018-10-07T09:48:47.339Z,7.70
2018-10-07T09:51:16.158Z,7.93
2018-10-07T09:53:45.190Z,8.00
2018-10-07T09:56:14.807Z,8.00
2018-10-07T09:58:44.648Z,7.97
2018-10-07T10:01:13.663Z,7.80
2018-10-07T10:03:42.868Z,7.67
2018-10-07T10:06:12.401Z,8.40
2018-10-07T10:08:41.205Z,7.63
2018-10-07T10:11:12.328Z,7.70
2018-10-07T10:13:41.850Z,7.83
2018-10-07T10:16:10.668Z,7.70
2018-10-07T10:18:47.097Z,7.87
2018-10-07T10:21:27.668Z,7.53
2018-10-07T10:26:10.866Z,7.77
2018-10-07T10:28:56.732Z,8.60
2018-10-07T10:32:39.800Z,7.93
2018-10-07T10:35:35.070Z,8.40
2018-10-07T10:40:11.862Z,8.10
2018-10-07T10:42:45.567Z,7.93
2018-10-07T10:45:26.446Z,8.27
2018-10-07T10:47:59.537Z,8.40
2018-10-07T10:51:38.201Z,8.00
2018-10-07T10:54:18.543Z,7.67
2018-10-07T10:56:59.585Z,7.90
2018-10-07T10:59:54.992Z,7.97
2018-10-07T11:02:32.024Z,7.97
2018-10-07T11:07:17.365Z,7.60
2018-10-07T11:10:54.920Z,7.70
2018-10-07T11:13:30.355Z,7.53
2018-10-07T11:16:20.634Z,7.57
2018-10-07T11:19:01.771Z,7.37
2018-10-07T11:21:43.100Z,7.80
2018-10-07T11:24:17.088Z,7.63
2018-10-07T11:26:55.733Z,8.10
2018-10-07T11:29:32.995Z,8.00
2018-10-07T11:32:08.985Z,7.67
2018-10-07T11:35:46.138Z,7.97
2018-10-07T11:38:20.321Z,7.73
2018-10-07T11:41:29.511Z,8.30
2018-10-07T11:44:04.605Z,7.50
2018-10-07T11:47:08.967Z,8.00
2018-10-07T11:49:43.170Z,7.90
2018-10-07T11:52:23.246Z,7.67
2018-10-07T11:54:54.918Z,8.40
2018-10-07T11:57:24.138Z,7.97
2018-10-07T11:59:54.003Z,8.03
2018-10-07T12:02:23.471Z,8.30
2018-10-07T12:04:52.906Z,8.17
2018-10-07T12:07:24.607Z,7.90
2018-10-07T12:09:53.962Z,8.07
2018-10-07T12:12:23.108Z,8.10
2018-10-07T12:14:52.195Z,8.40
2018-10-07T12:17:21.040Z,7.67
2018-10-07T12:19:51.687Z,8.37
2018-10-07T12:22:20.564Z,7.90
2018-10-07T12:24:49.455Z,8.20
2018-10-07T12:27:18.256Z,7.57
2018-10-07T12:29:47.165Z,8.03
2018-10-07T12:32:16.566Z,8.03
2018-10-07T12:34:45.657Z,8.00
2018-10-07T12:37:14.524Z,7.67
2018-10-07T12:39:43.316Z,8.10
2018-10-07T12:42:12.531Z,7.90
2018-10-07T12:44:41.634Z,8.13
2018-10-07T12:47:10.495Z,8.10
2018-10-07T12:49:39.589Z,8.50
2018-10-07T12:52:08.732Z,8.07
2018-10-07T12:54:37.851Z,8.33
2018-10-07T12:57:06.982Z,7.97
2018-10-07T12:59:35.847Z,8.03
2018-10-07T13:02:05.970Z,8.63
2018-10-07T13:04:35.505Z,7.87
2018-10-07T13:07:06.669Z,7.60
2018-10-07T13:09:35.484Z,8.00
2018-10-07T13:12:05.623Z,8.20
2018-10-07T13:14:34.762Z,7.40
2018-10-07T13:17:05.445Z,7.70
2018-10-07T13:19:34.925Z,8.00
2018-10-07T13:22:04.735Z,7.90
2018-10-07T13:24:33.837Z,8.00
2018-10-07T13:27:03.500Z,7.67
2018-10-07T13:29:33.356Z,7.90
2018-10-07T13:32:02.732Z,7.50
2018-10-07T13:34:32.844Z,7.57
2018-10-07T13:37:02.713Z,7.73
2018-10-07T13:39:32.972Z,8.30
2018-10-07T13:42:02.579Z,8.00
2018-10-07T13:44:32.235Z,8.30
2018-10-07T13:47:01.084Z,7.53
2018-10-07T13:49:30.281Z,7.70
2018-10-07T13:51:59.038Z,7.40
2018-10-07T13:54:28.162Z,7.90
2018-10-07T13:56:56.991Z,7.60
2018-10-07T13:59:25.804Z,7.67
2018-10-07T14:01:54.602Z,7.97
2018-10-07T14:04:23.558Z,8.10
2018-10-07T14:06:52.323Z,8.20
2018-10-07T14:09:21.296Z,8.10
2018-10-07T14:11:50.773Z,7.87
2018-10-07T14:14:19.611Z,8.00
2018-10-07T14:16:48.606Z,7.57
2018-10-07T14:19:18.080Z,7.90
2018-10-07T14:21:47.054Z,8.30
2018-10-07T14:24:15.881Z,9.13
2018-10-07T14:26:44.963Z,8.20
2018-10-07T14:29:13.702Z,7.83
2018-10-07T14:31:42.732Z,7.90
2018-10-07T14:34:12.439Z,8.20
2018-10-07T14:36:41.186Z,8.00
2018-10-07T14:39:13.000Z,7.67
2018-10-07T14:41:42.034Z,7.90
2018-10-07T14:44:10.855Z,7.77
2018-10-07T14:46:39.622Z,7.80
2018-10-07T14:49:09.577Z,7.30
2018-10-07T14:51:40.293Z,7.40
2018-10-07T14:54:10.365Z,7.80
2018-10-07T14:56:40.340Z,7.90
2018-10-07T14:59:09.790Z,8.20
2018-10-07T15:01:38.781Z,7.80
2018-10-07T15:04:08.037Z,7.80
2018-10-07T15:06:36.973Z,7.50
2018-10-07T15:09:08.906Z,8.50
2018-10-07T15:11:38.022Z,7.90
2018-10-07T15:14:08.545Z,8.20
2018-10-07T15:16:38.689Z,7.73
2018-10-07T15:19:09.325Z,8.20
2018-10-07T15:21:39.591Z,8.37
2018-10-07T15:24:08.496Z,7.67
2018-10-07T15:26:37.332Z,7.80
2018-10-07T15:29:06.202Z,8.00
2018-10-07T15:31:35.504Z,7.97
2018-10-07T15:34:04.228Z,7.77
2018-10-07T15:36:33.015Z,8.00
2018-10-07T15:39:01.915Z,8.00
2018-10-07T15:41:30.806Z,8.10
2018-10-07T15:44:00.444Z,7.67
2018-10-07T15:46:29.602Z,8.30
2018-10-07T15:49:01.636Z,7.67
2018-10-07T15:51:30.431Z,8.03
2018-10-07T15:53:59.862Z,7.90
2018-10-07T15:56:28.650Z,7.93
2018-10-07T15:58:57.401Z,8.27
2018-10-07T16:01:26.706Z,8.33
2018-10-07T16:03:56.611Z,8.30
2018-10-07T16:06:26.179Z,8.30
2018-10-07T16:09:00.644Z,8.90
2018-10-07T16:11:29.911Z,8.73
2018-10-07T16:14:00.017Z,9.10
2018-10-07T16:16:29.120Z,8.60
2018-10-07T16:18:57.968Z,8.10
2018-10-07T16:21:26.710Z,8.30
2018-10-07T16:23:55.646Z,8.20
2018-10-07T16:26:24.594Z,8.50
2018-10-07T16:28:53.302Z,8.63
2018-10-07T16:31:23.012Z,8.70
2018-10-07T16:33:52.585Z,8.10
2018-10-07T16:36:22.162Z,8.20
2018-10-07T16:38:51.449Z,8.27
2018-10-07T16:41:21.118Z,8.77
2018-10-07T16:43:51.878Z,8.80
2018-10-07T16:46:22.017Z,8.30
2018-10-07T16:48:51.016Z,8.20
2018-10-07T16:51:19.812Z,17.97
2018-10-07T16:53:48.574Z,8.93
2018-10-07T16:56:19.687Z,8.40
2018-10-07T16:58:48.823Z,8.20
2018-10-07T17:01:17.780Z,8.60
2018-10-07T17:03:46.724Z,8.23
2018-10-07T17:06:16.333Z,8.20
2018-10-07T17:08:45.628Z,8.17
2018-10-07T17:11:14.565Z,8.60
2018-10-07T17:13:43.522Z,8.73
2018-10-07T17:16:12.291Z,8.47
2018-10-07T17:18:42.079Z,8.50
2018-10-07T17:21:11.798Z,8.27
2018-10-07T17:23:40.849Z,8.60
2018-10-07T17:26:10.110Z,9.40
2018-10-07T17:28:39.525Z,9.03
2018-10-07T17:31:11.384Z,9.10
2018-10-07T17:33:40.436Z,8.73
2018-10-07T17:36:09.232Z,9.00
2018-10-07T17:38:38.116Z,8.80
2018-10-07T17:41:06.966Z,8.80
2018-10-07T17:43:35.725Z,9.20
2018-10-07T17:46:04.800Z,8.40
2018-10-07T17:48:33.984Z,8.47
2018-10-07T17:51:03.029Z,9.17
2018-10-07T17:53:31.818Z,9.30
2018-10-07T17:56:00.874Z,8.90
2018-10-07T17:58:29.865Z,9.00
2018-10-07T18:00:58.724Z,8.83
2018-10-07T18:03:28.099Z,9.00
2018-10-07T18:05:57.810Z,9.10
2018-10-07T18:08:28.157Z,8.60
2018-10-07T18:10:58.213Z,9.17
2018-10-07T18:13:27.826Z,9.40
2018-10-07T18:15:57.489Z,8.80
2018-10-07T18:18:27.219Z,8.70
2018-10-07T18:20:56.340Z,9.10
2018-10-07T18:23:26.193Z,8.40
2018-10-07T18:25:55.733Z,9.00
2018-10-07T18:28:25.738Z,9.03
2018-10-07T18:30:54.999Z,9.20
2018-10-07T18:33:25.359Z,9.20
2018-10-07T18:35:55.474Z,9.23
2018-10-07T18:38:25.079Z,9.27
2018-10-07T18:40:56.199Z,9.10
2018-10-07T18:43:25.250Z,8.90
2018-10-07T18:45:55.464Z,9.20
2018-10-07T18:48:24.317Z,8.87
2018-10-07T18:50:54.549Z,9.07
2018-10-07T18:53:24.121Z,8.97
2018-10-07T18:55:53.790Z,9.07
2018-10-07T18:58:22.579Z,9.00
2018-10-07T19:00:51.522Z,8.73
2018-10-07T19:03:20.298Z,9.13
2018-10-07T19:05:49.352Z,9.30
2018-10-07T19:08:18.109Z,9.10
2018-10-07T19:10:46.973Z,9.33
2018-10-07T19:13:16.124Z,9.00
2018-10-07T19:15:45.072Z,9.47
2018-10-07T19:18:13.874Z,9.20
2018-10-07T19:20:42.701Z,8.90
2018-10-07T19:23:12.101Z,8.70
2018-10-07T19:25:40.874Z,9.17
2018-10-07T19:28:09.994Z,8.70
2018-10-07T19:30:38.816Z,9.07
2018-10-07T19:33:07.833Z,8.80
2018-10-07T19:35:43.857Z,9.23
2018-10-07T19:38:12.678Z,9.30
2018-10-07T19:40:41.472Z,9.10
2018-10-07T19:43:10.920Z,9.27
2018-10-07T19:45:41.009Z,9.57
2018-10-07T19:48:10.541Z,9.70
2018-10-07T19:50:40.143Z,10.20
2018-10-07T19:53:09.997Z,9.53
2018-10-07T19:55:40.929Z,9.97
2018-10-07T19:58:10.614Z,9.70
2018-10-07T20:00:41.492Z,9.60
2018-10-07T20:03:11.633Z,9.50
2018-10-07T20:05:40.668Z,10.10
2018-10-07T20:08:10.204Z,9.73
2018-10-07T20:10:42.672Z,9.40
2018-10-07T20:13:12.503Z,9.60
2018-10-07T20:15:41.710Z,9.50
2018-10-07T20:18:12.086Z,9.40
2018-10-07T20:20:41.998Z,9.47
2018-10-07T20:23:11.843Z,9.63
2018-10-07T20:25:42.465Z,10.20
2018-10-07T20:28:11.305Z,12.33
2018-10-07T20:30:40.373Z,10.43
2018-10-07T20:33:09.151Z,9.73
2018-10-07T20:35:37.906Z,9.23
2018-10-07T20:38:07.546Z,10.00
2018-10-07T20:40:36.461Z,10.80
2018-10-07T20:43:05.525Z,9.37
2018-10-07T20:45:34.728Z,9.30
2018-10-07T20:48:03.636Z,9.40
2018-10-07T20:50:34.093Z,9.50
2018-10-07T20:53:02.981Z,9.70
2018-10-07T20:55:32.523Z,9.17
2018-10-07T20:58:02.226Z,9.40
2018-10-07T21:00:31.345Z,9.07
2018-10-07T21:03:00.500Z,9.57
2018-10-07T21:05:29.332Z,9.60
2018-10-07T21:07:58.150Z,9.60
2018-10-07T21:10:26.864Z,9.00
2018-10-07T21:12:56.209Z,9.57
2018-10-07T21:15:25.623Z,9.90
2018-10-07T21:17:55.162Z,10.70
2018-10-07T21:20:25.169Z,9.40
2018-10-07T21:22:54.348Z,9.33
2018-10-07T21:25:23.527Z,9.33
2018-10-07T21:27:54.225Z,9.53
2018-10-07T21:30:23.883Z,9.00
2018-10-07T21:32:54.501Z,9.57
2018-10-07T21:35:24.231Z,9.20
2018-10-07T21:37:54.349Z,9.40
2018-10-07T21:40:24.679Z,9.03
2018-10-07T21:42:54.034Z,9.40
2018-10-07T21:45:24.068Z,9.77
2018-10-07T21:47:55.007Z,9.40
2018-10-07T21:50:24.481Z,9.83
2018-10-07T21:52:54.032Z,9.50
2018-10-07T21:55:23.052Z,9.20
2018-10-07T21:57:52.367Z,9.47
2018-10-07T22:00:22.521Z,9.67
2018-10-07T22:02:53.220Z,9.13
2018-10-07T22:05:23.453Z,9.60
2018-10-07T22:07:52.658Z,9.33
2018-10-07T22:10:21.664Z,9.40
2018-10-07T22:12:52.242Z,9.30
2018-10-07T22:15:22.261Z,9.67
2018-10-07T22:17:51.310Z,10.33
2018-10-07T22:20:21.406Z,10.53
2018-10-07T22:22:50.358Z,11.30
2018-10-07T22:25:21.102Z,13.00
2018-10-07T22:27:51.242Z,14.10
2018-10-07T22:30:21.788Z,14.87
2018-10-07T22:32:51.423Z,12.50
2018-10-07T22:35:20.902Z,14.17
2018-10-07T22:37:50.931Z,13.90
2018-10-07T22:40:19.961Z,12.97
2018-10-07T22:42:49.236Z,13.70
2018-10-07T22:45:19.244Z,14.23
2018-10-07T22:47:49.516Z,13.20
2018-10-07T22:50:18.985Z,13.03
2018-10-07T22:52:48.007Z,13.13
2018-10-07T22:55:16.902Z,11.90
2018-10-07T22:57:46.085Z,11.20
2018-10-07T23:00:15.100Z,11.60
2018-10-07T23:02:44.827Z,12.63
2018-10-07T23:05:13.720Z,10.80
2018-10-07T23:07:42.940Z,10.93
2018-10-07T23:10:12.648Z,10.70
2018-10-07T23:12:43.202Z,11.17
2018-10-07T23:15:13.197Z,10.80
2018-10-07T23:17:42.821Z,11.17
2018-10-07T23:20:12.533Z,10.93
2018-10-07T23:22:42.282Z,11.10
2018-10-07T23:25:11.877Z,10.70
2018-10-07T23:27:42.447Z,11.60
2018-10-07T23:30:12.454Z,11.50
2018-10-07T23:32:42.216Z,11.83
2018-10-07T23:35:11.928Z,10.47
2018-10-07T23:37:41.992Z,11.30
2018-10-07T23:40:11.780Z,10.77
2018-10-07T23:42:41.725Z,11.10
2018-10-07T23:45:11.953Z,10.40
2018-10-07T23:47:42.166Z,10.60
2018-10-07T23:50:11.415Z,10.67
2018-10-07T23:52:40.442Z,11.33
2018-10-07T23:55:09.810Z,10.60
2018-10-07T23:57:39.305Z,10.83
